createdAt,value
2022-08-05T00:03:54.920Z,5.82
2022-08-05T00:08:34.509Z,5.43
2022-08-05T00:12:57.740Z,3.72
2022-08-05T00:17:20.360Z,5.35
2022-08-05T00:21:42.815Z,4.47
2022-08-05T00:26:06.761Z,5.70
2022-08-05T00:30:32.166Z,3.90
2022-08-05T00:35:06.683Z,3.75
2022-08-05T00:39:37.024Z,5.55
2022-08-05T00:44:04.762Z,4.72
2022-08-05T00:48:31.451Z,4.95
2022-08-05T00:52:54.891Z,6.72
2022-08-05T00:57:21.372Z,7.22
2022-08-05T01:01:48.718Z,6.45
2022-08-05T01:06:15.486Z,6.30
2022-08-05T01:10:55.221Z,6.95
2022-08-05T01:15:35.547Z,4.05
2022-08-05T01:20:20.656Z,4.93
2022-08-05T01:24:51.120Z,5.05
2022-08-05T01:29:31.761Z,4.75
2022-08-05T01:34:49.204Z,6.38
2022-08-05T01:39:13.790Z,5.25
2022-08-05T01:43:37.733Z,5.32
2022-08-05T01:48:04.080Z,7.10
2022-08-05T01:52:37.041Z,7.40
2022-08-05T01:58:11.959Z,5.22
2022-08-05T02:01:46.110Z,14.95
2022-08-05T02:06:33.309Z,9.45
2022-08-05T02:11:04.754Z,6.95
2022-08-05T02:15:38.880Z,7.47
2022-08-05T02:20:09.361Z,5.68
2022-08-05T02:24:41.161Z,7.55
2022-08-05T02:29:04.461Z,5.65
2022-08-05T02:33:35.898Z,9.77
2022-08-05T02:38:02.611Z,6.07
2022-08-05T02:42:30.719Z,14.23
2022-08-05T02:47:00.968Z,11.27
2022-08-05T02:51:28.152Z,7.47
2022-08-05T02:56:15.984Z,8.25
2022-08-05T03:00:42.220Z,11.02
2022-08-05T03:05:11.966Z,6.53
2022-08-05T03:09:37.423Z,7.93
2022-08-05T03:14:03.302Z,11.00
2022-08-05T03:18:30.087Z,10.23
2022-08-05T03:22:57.134Z,5.63
2022-08-05T03:27:21.551Z,7.40
2022-08-05T03:31:56.548Z,11.88
2022-08-05T03:36:30.628Z,7.65
2022-08-05T03:40:53.707Z,9.40
2022-08-05T03:45:23.081Z,9.95
2022-08-05T03:49:51.627Z,6.85
2022-08-05T03:55:51.934Z,8.88
2022-08-05T04:00:02.060Z,6.75
2022-08-05T04:04:35.819Z,6.47
2022-08-05T04:09:01.419Z,7.13
2022-08-05T04:13:25.281Z,6.72
2022-08-05T04:17:57.247Z,4.97
2022-08-05T04:22:20.505Z,9.27
2022-08-05T04:26:43.900Z,14.25
2022-08-05T04:31:10.575Z,8.75
2022-08-05T04:36:11.304Z,8.88
2022-08-05T04:40:19.404Z,9.85
2022-08-05T04:44:42.342Z,9.95
2022-08-05T04:49:04.980Z,16.35
2022-08-05T04:53:35.538Z,10.65
2022-08-05T04:57:58.159Z,22.70
2022-08-05T05:02:37.020Z,14.35
2022-08-05T05:07:03.243Z,16.67
2022-08-05T05:11:41.618Z,15.77
2022-08-05T05:16:08.720Z,16.98
2022-08-05T05:20:32.043Z,17.38
2022-08-05T05:24:56.973Z,8.90
2022-08-05T05:29:21.579Z,14.95
2022-08-05T05:33:58.911Z,16.90
2022-08-05T05:38:27.420Z,11.95
2022-08-05T05:42:51.491Z,11.32
2022-08-05T05:47:22.212Z,14.30
2022-08-05T05:51:50.030Z,15.00
2022-08-05T05:56:13.100Z,12.85
2022-08-05T06:00:35.680Z,14.13
2022-08-05T06:04:58.381Z,10.45
2022-08-05T06:09:24.788Z,11.45
2022-08-05T06:13:50.448Z,12.18
2022-08-05T06:18:16.920Z,11.70
2022-08-05T06:22:40.469Z,12.88
2022-08-05T06:27:04.264Z,9.82
2022-08-05T06:31:32.018Z,15.77
2022-08-05T06:36:03.926Z,11.82
2022-08-05T06:40:32.438Z,10.73
2022-08-05T06:44:55.119Z,8.77
2022-08-05T06:49:21.474Z,17.58
2022-08-05T06:54:04.059Z,9.85
2022-08-05T06:58:36.286Z,9.88
2022-08-05T07:02:59.020Z,10.30
2022-08-05T07:07:23.872Z,10.65
2022-08-05T07:12:00.481Z,9.90
2022-08-05T07:17:59.178Z,8.57
2022-08-05T07:21:25.600Z,6.38
2022-08-05T07:25:56.042Z,9.75
2022-08-05T07:30:23.946Z,7.32
2022-08-05T07:34:51.120Z,12.40
2022-08-05T07:40:03.706Z,8.77
2022-08-05T07:44:18.350Z,8.27
2022-08-05T07:49:04.225Z,8.27
2022-08-05T07:53:26.917Z,14.05
2022-08-05T07:58:03.027Z,10.25
2022-08-05T08:02:30.967Z,6.93
2022-08-05T08:07:10.260Z,9.80
2022-08-05T08:11:47.511Z,11.15
2022-08-05T08:16:50.503Z,10.45
2022-08-05T08:21:02.143Z,8.80
2022-08-05T08:25:59.731Z,9.90
2022-08-05T08:30:29.658Z,11.18
2022-08-05T08:34:54.719Z,9.43
2022-08-05T08:39:20.240Z,8.45
2022-08-05T08:45:21.153Z,8.85
2022-08-05T08:49:02.996Z,8.27
2022-08-05T08:53:15.988Z,7.88
2022-08-05T08:57:42.273Z,8.02
2022-08-05T09:02:22.078Z,9.13
2022-08-05T09:06:49.863Z,8.02
2022-08-05T09:11:13.916Z,10.50
2022-08-05T09:15:38.221Z,9.20
2022-08-05T09:20:05.279Z,4.82
2022-08-05T09:24:28.119Z,8.40
2022-08-05T09:28:59.459Z,10.30
2022-08-05T09:33:23.299Z,5.43
2022-08-05T09:38:12.375Z,7.32
2022-08-05T09:42:43.461Z,6.95
2022-08-05T09:47:16.051Z,13.43
2022-08-05T09:51:43.137Z,9.05
2022-08-05T09:56:13.394Z,9.52
2022-08-05T10:00:36.340Z,16.58
2022-08-05T10:05:14.939Z,8.52
2022-08-05T10:09:45.067Z,9.75
2022-08-05T10:14:32.229Z,12.57
2022-08-05T10:18:55.159Z,5.15
2022-08-05T10:23:59.329Z,8.95
2022-08-05T10:28:28.945Z,4.85
2022-08-05T10:33:01.833Z,4.35
2022-08-05T10:37:26.701Z,6.07
2022-08-05T10:42:18.829Z,5.43
2022-08-05T10:46:57.160Z,8.50
2022-08-05T10:51:22.880Z,6.07
2022-08-05T10:56:21.230Z,12.02
2022-08-05T11:00:55.381Z,10.15
2022-08-05T11:05:29.145Z,9.82
2022-08-05T11:10:04.093Z,4.95
2022-08-05T11:20:11.120Z,5.97
2022-08-05T11:24:29.748Z,10.80
2022-08-05T11:28:54.919Z,8.50
2022-08-05T11:33:46.493Z,5.32
2022-08-05T11:38:28.945Z,7.38
2022-08-05T11:42:52.892Z,8.90
2022-08-05T11:47:21.549Z,6.82
2022-08-05T11:51:50.594Z,6.93
2022-08-05T11:56:13.231Z,7.20
2022-08-05T12:00:38.637Z,6.25
2022-08-05T12:05:07.471Z,6.90
2022-08-05T12:09:52.770Z,9.02
2022-08-05T12:14:16.956Z,6.15
2022-08-05T12:18:42.625Z,5.03
2022-08-05T12:23:12.433Z,5.28
2022-08-05T12:27:35.035Z,6.35
2022-08-05T12:32:16.121Z,9.07
2022-08-05T12:36:39.268Z,5.50
2022-08-05T12:41:03.060Z,6.13
2022-08-05T12:45:42.670Z,6.03
2022-08-05T12:50:19.821Z,6.78
2022-08-05T12:54:45.620Z,8.27
2022-08-05T12:59:21.139Z,7.05
2022-08-05T13:03:49.979Z,5.75
2022-08-05T13:08:18.879Z,3.95
2022-08-05T13:12:57.503Z,5.20
2022-08-05T13:17:31.917Z,5.45
2022-08-05T13:22:03.899Z,4.03
2022-08-05T13:26:30.154Z,5.07
2022-08-05T13:30:53.527Z,4.70
2022-08-05T13:35:22.146Z,8.15
2022-08-05T13:40:16.156Z,14.75
2022-08-05T13:44:34.750Z,7.40
2022-08-05T13:49:01.048Z,6.75
2022-08-05T13:53:23.539Z,7.35
2022-08-05T13:57:48.626Z,6.00
2022-08-05T14:02:19.684Z,10.48
2022-08-05T14:06:47.685Z,7.95
2022-08-05T14:11:20.843Z,8.30
2022-08-05T14:16:05.045Z,8.38
2022-08-05T14:20:27.937Z,4.93
2022-08-05T14:24:50.421Z,7.50
2022-08-05T14:29:15.946Z,6.80
2022-08-05T14:33:59.317Z,8.45
2022-08-05T14:38:32.816Z,4.70
2022-08-05T14:42:58.629Z,6.47
2022-08-05T14:48:03.210Z,5.30
2022-08-05T14:52:04.241Z,9.27
2022-08-05T14:56:31.041Z,12.70
2022-08-05T15:00:59.093Z,5.28
2022-08-05T15:05:22.261Z,6.88
2022-08-05T15:09:54.362Z,8.15
2022-08-05T15:14:33.256Z,5.45
2022-08-05T15:18:58.603Z,8.25
2022-08-05T15:23:23.062Z,7.20
2022-08-05T15:27:51.884Z,4.82
2022-08-05T15:32:14.821Z,11.30
2022-08-05T15:36:39.121Z,11.93
2022-08-05T15:41:23.723Z,10.98
2022-08-05T15:45:46.147Z,7.18
2022-08-05T15:50:15.164Z,7.72
2022-08-05T15:54:38.562Z,9.60
2022-08-05T15:59:01.081Z,4.10
2022-08-05T16:03:23.674Z,7.38
2022-08-05T16:07:46.493Z,6.80
2022-08-05T16:12:11.754Z,7.25
2022-08-05T16:16:36.044Z,8.93
2022-08-05T16:21:01.216Z,8.18
2022-08-05T16:25:33.788Z,5.78
2022-08-05T16:29:57.089Z,10.95
2022-08-05T16:34:22.062Z,7.50
2022-08-05T16:38:44.539Z,8.57
2022-08-05T16:43:17.723Z,7.25
2022-08-05T16:47:48.453Z,12.18
2022-08-05T16:52:16.454Z,5.88
2022-08-05T16:56:41.522Z,10.90
2022-08-05T17:01:04.510Z,16.73
2022-08-05T17:05:33.017Z,24.38
2022-08-05T17:09:59.463Z,18.08
2022-08-05T17:14:37.101Z,16.38
2022-08-05T17:19:00.728Z,18.33
2022-08-05T17:24:03.251Z,19.20
2022-08-05T17:28:05.783Z,18.33
2022-08-05T17:32:30.563Z,15.13
2022-08-05T17:36:56.942Z,20.65
2022-08-05T17:42:16.942Z,16.48
2022-08-05T17:46:02.342Z,19.30
2022-08-05T17:50:30.470Z,20.05
2022-08-05T17:54:53.523Z,18.55
2022-08-05T17:59:15.763Z,15.68
2022-08-05T18:04:04.083Z,17.48
2022-08-05T18:08:25.455Z,17.40
2022-08-05T18:12:48.682Z,16.55
2022-08-05T18:17:58.614Z,19.08
2022-08-05T18:22:09.645Z,22.67
2022-08-05T18:26:34.088Z,18.88
2022-08-05T18:30:57.423Z,22.85
2022-08-05T18:35:20.162Z,19.23
2022-08-05T18:40:34.316Z,22.00
2022-08-05T18:44:49.166Z,21.55
2022-08-05T18:49:56.821Z,18.48
2022-08-05T18:54:19.313Z,18.00
2022-08-05T18:58:42.981Z,19.85
2022-08-05T19:03:55.768Z,18.20
2022-08-05T19:14:15.272Z,12.90
2022-08-05T19:19:54.805Z,13.60
2022-08-05T19:36:12.464Z,9.77
2022-08-05T20:21:23.467Z,10.63
2022-08-05T20:25:46.427Z,5.65
2022-08-05T20:30:12.562Z,6.07
2022-08-05T20:34:35.163Z,7.38
2022-08-05T20:38:58.964Z,5.20
2022-08-05T20:43:33.265Z,6.28
2022-08-05T20:48:04.102Z,5.70
2022-08-05T20:52:27.058Z,7.90
2022-08-05T20:56:50.400Z,5.20
2022-08-05T21:01:13.703Z,5.07
2022-08-05T21:05:53.941Z,4.43
2022-08-05T21:10:18.142Z,5.80
2022-08-05T21:14:40.404Z,5.97
2022-08-05T21:19:03.623Z,7.15
2022-08-05T21:23:26.022Z,5.25
2022-08-05T21:27:52.776Z,5.07
2022-08-05T21:32:17.142Z,5.65
2022-08-05T21:36:42.763Z,4.40
2022-08-05T21:41:09.631Z,3.63
2022-08-05T21:45:56.533Z,5.32
2022-08-05T21:50:15.531Z,7.07
2022-08-05T21:54:40.802Z,4.15
2022-08-05T21:59:07.729Z,6.78
2022-08-05T22:03:51.941Z,4.07
2022-08-05T22:08:22.367Z,3.80
2022-08-05T22:12:50.595Z,5.25
2022-08-05T22:17:13.484Z,7.00
2022-08-05T22:21:36.063Z,3.80
2022-08-05T22:26:19.675Z,2.97
2022-08-05T22:30:56.105Z,8.68
2022-08-05T22:35:20.503Z,7.95
2022-08-05T22:39:45.592Z,8.13
2022-08-05T22:44:13.662Z,4.30
2022-08-05T22:48:36.284Z,8.98
2022-08-05T22:52:59.045Z,5.75
2022-08-05T22:57:21.502Z,8.75
2022-08-05T23:02:04.269Z,9.65
2022-08-05T23:06:26.568Z,12.50
2022-08-05T23:10:53.230Z,9.02
2022-08-05T23:15:18.869Z,10.50
2022-08-05T23:19:46.694Z,13.95
2022-08-05T23:24:18.142Z,11.40
2022-08-05T23:28:43.063Z,12.63
2022-08-05T23:33:05.802Z,11.45
2022-08-05T23:37:39.263Z,9.48
2022-08-05T23:42:02.282Z,13.57
2022-08-05T23:46:25.221Z,11.75
2022-08-05T23:50:48.583Z,10.10
2022-08-05T23:55:11.495Z,11.27
